sensor_id;sensor_type;location;lat;lon;timestamp;temperature;humidity
23395;DHT22;11870;53.084;18.206;2023-06-22T00:00:49;17.40;99.90
23395;DHT22;11870;53.084;18.206;2023-06-22T00:03:32;17.40;99.90
23395;DHT22;11870;53.084;18.206;2023-06-22T00:05:58;17.30;99.90
23395;DHT22;11870;53.084;18.206;2023-06-22T00:08:24;17.40;99.90
23395;DHT22;11870;53.084;18.206;2023-06-22T00:10:50;17.50;99.90
23395;DHT22;11870;53.084;18.206;2023-06-22T00:13:16;17.50;99.90
23395;DHT22;11870;53.084;18.206;2023-06-22T00:15:43;17.60;99.90
23395;DHT22;11870;53.084;18.206;2023-06-22T00:18:10;17.60;99.90
23395;DHT22;11870;53.084;18.206;2023-06-22T00:20:37;17.70;99.90
23395;DHT22;11870;53.084;18.206;2023-06-22T00:23:04;17.80;99.90
23395;DHT22;11870;53.084;18.206;2023-06-22T00:25:40;17.80;99.90
23395;DHT22;11870;53.084;18.206;2023-06-22T00:28:07;17.90;99.90
23395;DHT22;11870;53.084;18.206;2023-06-22T00:30:34;18.50;99.90
23395;DHT22;11870;53.084;18.206;2023-06-22T00:33:00;17.90;99.90
23395;DHT22;11870;53.084;18.206;2023-06-22T00:37:57;18.00;99.90
23395;DHT22;11870;53.084;18.206;2023-06-22T00:42:59;18.00;99.90
23395;DHT22;11870;53.084;18.206;2023-06-22T00:45:26;18.00;99.90
23395;DHT22;11870;53.084;18.206;2023-06-22T00:50:24;18.00;99.90
23395;DHT22;11870;53.084;18.206;2023-06-22T00:52:52;18.00;99.90
23395;DHT22;11870;53.084;18.206;2023-06-22T00:55:20;18.00;99.90
23395;DHT22;11870;53.084;18.206;2023-06-22T01:00:15;18.00;99.90
23395;DHT22;11870;53.084;18.206;2023-06-22T01:02:44;18.00;99.90
23395;DHT22;11870;53.084;18.206;2023-06-22T01:05:13;18.00;99.90
23395;DHT22;11870;53.084;18.206;2023-06-22T01:08:46;18.00;99.90
23395;DHT22;11870;53.084;18.206;2023-06-22T01:10:53;18.00;99.90
23395;DHT22;11870;53.084;18.206;2023-06-22T01:13:32;18.00;99.90
23395;DHT22;11870;53.084;18.206;2023-06-22T01:16:13;18.00;99.90
23395;DHT22;11870;53.084;18.206;2023-06-22T01:18:43;18.00;99.90
23395;DHT22;11870;53.084;18.206;2023-06-22T01:21:15;17.90;99.90
23395;DHT22;11870;53.084;18.206;2023-06-22T01:27:32;17.90;99.90
23395;DHT22;11870;53.084;18.206;2023-06-22T01:29:33;18.40;99.90
23395;DHT22;11870;53.084;18.206;2023-06-22T01:32:02;18.00;99.90
23395;DHT22;11870;53.084;18.206;2023-06-22T01:34:31;18.00;99.90
23395;DHT22;11870;53.084;18.206;2023-06-22T01:36:59;18.10;99.90
23395;DHT22;11870;53.084;18.206;2023-06-22T01:39:27;18.10;99.90
23395;DHT22;11870;53.084;18.206;2023-06-22T01:41:54;18.10;99.90
23395;DHT22;11870;53.084;18.206;2023-06-22T01:44:20;18.20;99.90
23395;DHT22;11870;53.084;18.206;2023-06-22T01:46:48;18.20;99.90
23395;DHT22;11870;53.084;18.206;2023-06-22T01:49:15;18.20;99.90
23395;DHT22;11870;53.084;18.206;2023-06-22T01:51:41;18.20;99.90
23395;DHT22;11870;53.084;18.206;2023-06-22T01:54:07;18.10;99.90
23395;DHT22;11870;53.084;18.206;2023-06-22T01:56:34;18.10;99.90
23395;DHT22;11870;53.084;18.206;2023-06-22T01:59:05;17.90;99.90
23395;DHT22;11870;53.084;18.206;2023-06-22T02:01:38;17.90;99.90
23395;DHT22;11870;53.084;18.206;2023-06-22T02:04:11;19.70;99.90
23395;DHT22;11870;53.084;18.206;2023-06-22T02:06:39;17.90;99.90
23395;DHT22;11870;53.084;18.206;2023-06-22T02:09:11;17.80;99.90
23395;DHT22;11870;53.084;18.206;2023-06-22T02:14:05;17.70;99.90
23395;DHT22;11870;53.084;18.206;2023-06-22T02:16:32;17.60;99.90
23395;DHT22;11870;53.084;18.206;2023-06-22T02:19:01;17.40;99.90
23395;DHT22;11870;53.084;18.206;2023-06-22T02:21:29;17.40;99.90
23395;DHT22;11870;53.084;18.206;2023-06-22T02:23:56;17.20;99.90
23395;DHT22;11870;53.084;18.206;2023-06-22T02:26:25;17.20;99.90
23395;DHT22;11870;53.084;18.206;2023-06-22T02:28:51;17.20;99.90
23395;DHT22;11870;53.084;18.206;2023-06-22T02:31:18;17.20;99.90
23395;DHT22;11870;53.084;18.206;2023-06-22T02:33:44;17.30;99.90
23395;DHT22;11870;53.084;18.206;2023-06-22T02:36:10;17.20;99.90
23395;DHT22;11870;53.084;18.206;2023-06-22T02:38:41;17.30;99.90
23395;DHT22;11870;53.084;18.206;2023-06-22T02:41:11;17.30;99.90
23395;DHT22;11870;53.084;18.206;2023-06-22T02:46:05;17.30;99.90
23395;DHT22;11870;53.084;18.206;2023-06-22T02:48:31;17.20;99.90
23395;DHT22;11870;53.084;18.206;2023-06-22T02:53:26;17.00;99.90
23395;DHT22;11870;53.084;18.206;2023-06-22T02:58:18;17.30;99.90
23395;DHT22;11870;53.084;18.206;2023-06-22T03:00:44;17.70;99.90
23395;DHT22;11870;53.084;18.206;2023-06-22T03:03:10;17.40;99.90
23395;DHT22;11870;53.084;18.206;2023-06-22T03:05:36;17.50;99.90
23395;DHT22;11870;53.084;18.206;2023-06-22T03:08:02;17.50;99.90
23395;DHT22;11870;53.084;18.206;2023-06-22T03:10:28;18.10;99.90
23395;DHT22;11870;53.084;18.206;2023-06-22T03:12:54;19.70;99.90
23395;DHT22;11870;53.084;18.206;2023-06-22T03:15:20;19.30;99.90
23395;DHT22;11870;53.084;18.206;2023-06-22T03:17:46;20.00;99.90
23395;DHT22;11870;53.084;18.206;2023-06-22T03:22:40;21.00;99.90
23395;DHT22;11870;53.084;18.206;2023-06-22T03:25:09;21.50;99.90
23395;DHT22;11870;53.084;18.206;2023-06-22T03:27:37;21.50;99.90
23395;DHT22;11870;53.084;18.206;2023-06-22T03:30:03;21.90;99.90
23395;DHT22;11870;53.084;18.206;2023-06-22T03:32:29;22.00;99.90
23395;DHT22;11870;53.084;18.206;2023-06-22T03:37:28;22.90;99.90
23395;DHT22;11870;53.084;18.206;2023-06-22T03:39:54;23.00;99.90
23395;DHT22;11870;53.084;18.206;2023-06-22T03:42:20;23.50;99.90
23395;DHT22;11870;53.084;18.206;2023-06-22T03:47:12;23.70;99.90
23395;DHT22;11870;53.084;18.206;2023-06-22T03:49:38;24.10;99.90
23395;DHT22;11870;53.084;18.206;2023-06-22T03:54:31;24.30;99.90
23395;DHT22;11870;53.084;18.206;2023-06-22T03:56:58;24.90;99.90
23395;DHT22;11870;53.084;18.206;2023-06-22T03:59:24;24.80;99.90
23395;DHT22;11870;53.084;18.206;2023-06-22T04:04:18;25.20;99.90
23395;DHT22;11870;53.084;18.206;2023-06-22T04:06:44;25.50;99.90
23395;DHT22;11870;53.084;18.206;2023-06-22T04:09:10;26.10;99.90
23395;DHT22;11870;53.084;18.206;2023-06-22T04:11:36;26.30;99.80
23395;DHT22;11870;53.084;18.206;2023-06-22T04:14:01;26.30;98.40
23395;DHT22;11870;53.084;18.206;2023-06-22T04:18:54;27.00;95.30
23395;DHT22;11870;53.084;18.206;2023-06-22T04:21:20;27.30;93.60
23395;DHT22;11870;53.084;18.206;2023-06-22T04:23:46;28.30;83.10
23395;DHT22;11870;53.084;18.206;2023-06-22T04:26:13;28.20;80.40
23395;DHT22;11870;53.084;18.206;2023-06-22T04:28:40;28.30;80.40
23395;DHT22;11870;53.084;18.206;2023-06-22T04:33:33;27.80;77.90
23395;DHT22;11870;53.084;18.206;2023-06-22T04:38:29;29.40;70.00
23395;DHT22;11870;53.084;18.206;2023-06-22T04:40:59;31.20;58.00
23395;DHT22;11870;53.084;18.206;2023-06-22T04:43:27;31.10;58.40
23395;DHT22;11870;53.084;18.206;2023-06-22T04:45:57;31.10;57.00
23395;DHT22;11870;53.084;18.206;2023-06-22T04:48:29;30.90;55.00
23395;DHT22;11870;53.084;18.206;2023-06-22T04:50:59;31.10;54.70
23395;DHT22;11870;53.084;18.206;2023-06-22T04:53:30;31.50;53.30
23395;DHT22;11870;53.084;18.206;2023-06-22T04:55:56;31.80;51.40
23395;DHT22;11870;53.084;18.206;2023-06-22T04:58:22;32.10;49.50
23395;DHT22;11870;53.084;18.206;2023-06-22T05:00:48;32.10;49.30
23395;DHT22;11870;53.084;18.206;2023-06-22T05:03:18;32.00;50.10
23395;DHT22;11870;53.084;18.206;2023-06-22T05:05:44;33.30;46.60
23395;DHT22;11870;53.084;18.206;2023-06-22T05:08:22;33.20;46.20
23395;DHT22;11870;53.084;18.206;2023-06-22T05:10:52;33.90;44.60
23395;DHT22;11870;53.084;18.206;2023-06-22T05:13:18;35.00;41.80
23395;DHT22;11870;53.084;18.206;2023-06-22T05:15:44;34.70;40.60
23395;DHT22;11870;53.084;18.206;2023-06-22T05:18:13;34.20;41.80
23395;DHT22;11870;53.084;18.206;2023-06-22T05:20:39;34.40;40.70
23395;DHT22;11870;53.084;18.206;2023-06-22T05:23:05;35.30;38.40
23395;DHT22;11870;53.084;18.206;2023-06-22T05:25:31;35.20;38.90
23395;DHT22;11870;53.084;18.206;2023-06-22T05:27:58;35.90;38.30
23395;DHT22;11870;53.084;18.206;2023-06-22T05:30:24;35.90;38.10
23395;DHT22;11870;53.084;18.206;2023-06-22T05:32:50;35.70;37.90
23395;DHT22;11870;53.084;18.206;2023-06-22T05:35:18;36.60;36.60
23395;DHT22;11870;53.084;18.206;2023-06-22T05:37:44;36.50;36.00
23395;DHT22;11870;53.084;18.206;2023-06-22T05:40:10;37.20;34.50
23395;DHT22;11870;53.084;18.206;2023-06-22T05:42:36;36.90;34.60
23395;DHT22;11870;53.084;18.206;2023-06-22T05:45:03;36.50;35.60
23395;DHT22;11870;53.084;18.206;2023-06-22T05:47:29;35.90;35.80
23395;DHT22;11870;53.084;18.206;2023-06-22T05:49:55;36.40;34.80
23395;DHT22;11870;53.084;18.206;2023-06-22T05:52:21;37.00;34.00
23395;DHT22;11870;53.084;18.206;2023-06-22T05:54:47;37.30;33.20
23395;DHT22;11870;53.084;18.206;2023-06-22T05:57:13;37.40;33.60
23395;DHT22;11870;53.084;18.206;2023-06-22T05:59:39;38.60;30.80
23395;DHT22;11870;53.084;18.206;2023-06-22T06:02:05;36.40;33.90
23395;DHT22;11870;53.084;18.206;2023-06-22T06:06:57;37.10;44.20
23395;DHT22;11870;53.084;18.206;2023-06-22T06:09:23;36.80;32.90
23395;DHT22;11870;53.084;18.206;2023-06-22T06:24:02;39.00;31.00
23395;DHT22;11870;53.084;18.206;2023-06-22T06:26:27;39.20;29.70
23395;DHT22;11870;53.084;18.206;2023-06-22T06:29:00;40.00;28.20
23395;DHT22;11870;53.084;18.206;2023-06-22T06:31:26;39.70;27.80
23395;DHT22;11870;53.084;18.206;2023-06-22T06:33:55;39.40;28.50
23395;DHT22;11870;53.084;18.206;2023-06-22T06:36:21;39.90;28.20
23395;DHT22;11870;53.084;18.206;2023-06-22T06:38:47;41.00;26.60
23395;DHT22;11870;53.084;18.206;2023-06-22T06:41:15;40.40;26.70
23395;DHT22;11870;53.084;18.206;2023-06-22T06:43:41;40.00;26.70
23395;DHT22;11870;53.084;18.206;2023-06-22T06:46:10;40.60;26.20
23395;DHT22;11870;53.084;18.206;2023-06-22T06:48:37;41.40;25.50
23395;DHT22;11870;53.084;18.206;2023-06-22T06:51:02;41.00;26.30
23395;DHT22;11870;53.084;18.206;2023-06-22T06:53:28;41.60;25.50
23395;DHT22;11870;53.084;18.206;2023-06-22T06:55:55;42.40;24.10
23395;DHT22;11870;53.084;18.206;2023-06-22T06:58:21;42.60;24.40
23395;DHT22;11870;53.084;18.206;2023-06-22T07:00:48;42.90;22.90
23395;DHT22;11870;53.084;18.206;2023-06-22T07:03:14;42.60;23.60
23395;DHT22;11870;53.084;18.206;2023-06-22T07:05:40;43.10;22.90
23395;DHT22;11870;53.084;18.206;2023-06-22T07:08:06;42.70;22.60
23395;DHT22;11870;53.084;18.206;2023-06-22T07:10:32;43.10;22.90
23395;DHT22;11870;53.084;18.206;2023-06-22T07:12:58;42.20;23.40
23395;DHT22;11870;53.084;18.206;2023-06-22T07:15:24;42.40;23.40
23395;DHT22;11870;53.084;18.206;2023-06-22T07:17:51;41.00;24.30
23395;DHT22;11870;53.084;18.206;2023-06-22T07:20:16;41.40;23.50
23395;DHT22;11870;53.084;18.206;2023-06-22T07:22:43;42.30;22.70
23395;DHT22;11870;53.084;18.206;2023-06-22T07:25:10;42.00;22.50
23395;DHT22;11870;53.084;18.206;2023-06-22T07:28:06;42.90;22.00
23395;DHT22;11870;53.084;18.206;2023-06-22T07:30:32;43.70;21.60
23395;DHT22;11870;53.084;18.206;2023-06-22T07:32:59;44.00;21.10
23395;DHT22;11870;53.084;18.206;2023-06-22T07:35:29;44.00;20.90
23395;DHT22;11870;53.084;18.206;2023-06-22T07:37:56;44.70;19.90
23395;DHT22;11870;53.084;18.206;2023-06-22T07:40:21;45.80;19.10
23395;DHT22;11870;53.084;18.206;2023-06-22T07:42:47;45.90;19.10
23395;DHT22;11870;53.084;18.206;2023-06-22T07:45:18;45.40;19.80
23395;DHT22;11870;53.084;18.206;2023-06-22T08:12:19;45.70;17.60
23395;DHT22;11870;53.084;18.206;2023-06-22T08:14:45;45.60;18.10
23395;DHT22;11870;53.084;18.206;2023-06-22T08:17:12;46.10;17.70
23395;DHT22;11870;53.084;18.206;2023-06-22T08:19:39;46.80;16.60
23395;DHT22;11870;53.084;18.206;2023-06-22T08:22:05;46.30;16.90
23395;DHT22;11870;53.084;18.206;2023-06-22T08:24:31;46.70;16.80
23395;DHT22;11870;53.084;18.206;2023-06-22T08:26:57;46.90;16.80
23395;DHT22;11870;53.084;18.206;2023-06-22T08:29:23;47.10;17.40
23395;DHT22;11870;53.084;18.206;2023-06-22T08:31:49;46.60;17.20
23395;DHT22;11870;53.084;18.206;2023-06-22T08:34:15;45.60;17.30
23395;DHT22;11870;53.084;18.206;2023-06-22T08:36:41;45.80;17.30
23395;DHT22;11870;53.084;18.206;2023-06-22T08:39:09;46.00;17.40
23395;DHT22;11870;53.084;18.206;2023-06-22T08:41:34;45.90;16.80
23395;DHT22;11870;53.084;18.206;2023-06-22T08:44:01;46.50;16.80
23395;DHT22;11870;53.084;18.206;2023-06-22T08:46:26;46.70;16.50
23395;DHT22;11870;53.084;18.206;2023-06-22T08:48:59;46.20;17.20
23395;DHT22;11870;53.084;18.206;2023-06-22T08:51:26;47.30;16.60
23395;DHT22;11870;53.084;18.206;2023-06-22T08:53:52;47.20;16.10
23395;DHT22;11870;53.084;18.206;2023-06-22T08:56:18;47.90;16.00
23395;DHT22;11870;53.084;18.206;2023-06-22T08:58:45;47.70;16.30
23395;DHT22;11870;53.084;18.206;2023-06-22T09:01:10;47.10;16.10
23395;DHT22;11870;53.084;18.206;2023-06-22T09:03:37;46.50;16.30
23395;DHT22;11870;53.084;18.206;2023-06-22T09:06:03;47.70;15.70
23395;DHT22;11870;53.084;18.206;2023-06-22T09:08:29;46.70;16.70
23395;DHT22;11870;53.084;18.206;2023-06-22T09:10:55;48.00;15.40
23395;DHT22;11870;53.084;18.206;2023-06-22T09:13:21;48.50;15.00
23395;DHT22;11870;53.084;18.206;2023-06-22T09:15:47;47.30;14.70
23395;DHT22;11870;53.084;18.206;2023-06-22T09:18:14;48.00;15.50
23395;DHT22;11870;53.084;18.206;2023-06-22T09:20:40;46.40;16.20
23395;DHT22;11870;53.084;18.206;2023-06-22T09:23:06;47.50;15.20
23395;DHT22;11870;53.084;18.206;2023-06-22T09:25:33;47.90;14.20
23395;DHT22;11870;53.084;18.206;2023-06-22T09:27:59;47.60;14.70
23395;DHT22;11870;53.084;18.206;2023-06-22T09:30:25;47.40;14.90
23395;DHT22;11870;53.084;18.206;2023-06-22T09:32:51;47.50;15.50
23395;DHT22;11870;53.084;18.206;2023-06-22T09:35:17;47.80;15.00
23395;DHT22;11870;53.084;18.206;2023-06-22T09:37:43;48.40;13.60
23395;DHT22;11870;53.084;18.206;2023-06-22T09:40:10;48.20;14.40
23395;DHT22;11870;53.084;18.206;2023-06-22T09:42:39;48.90;14.50
23395;DHT22;11870;53.084;18.206;2023-06-22T09:45:05;49.40;13.70
23395;DHT22;11870;53.084;18.206;2023-06-22T09:47:33;48.50;14.50
23395;DHT22;11870;53.084;18.206;2023-06-22T09:49:59;48.50;14.50
23395;DHT22;11870;53.084;18.206;2023-06-22T09:52:25;48.50;13.90
23395;DHT22;11870;53.084;18.206;2023-06-22T09:54:51;48.40;14.50
23395;DHT22;11870;53.084;18.206;2023-06-22T09:57:17;47.60;14.60
23395;DHT22;11870;53.084;18.206;2023-06-22T09:59:43;47.70;14.30
23395;DHT22;11870;53.084;18.206;2023-06-22T10:02:09;46.40;15.10
23395;DHT22;11870;53.084;18.206;2023-06-22T10:04:35;45.70;15.50
23395;DHT22;11870;53.084;18.206;2023-06-22T10:07:02;45.20;16.30
23395;DHT22;11870;53.084;18.206;2023-06-22T10:09:28;46.20;15.80
23395;DHT22;11870;53.084;18.206;2023-06-22T10:11:54;47.10;14.40
23395;DHT22;11870;53.084;18.206;2023-06-22T10:14:20;45.70;15.40
23395;DHT22;11870;53.084;18.206;2023-06-22T10:16:48;45.50;14.30
23395;DHT22;11870;53.084;18.206;2023-06-22T10:19:13;45.60;14.70
23395;DHT22;11870;53.084;18.206;2023-06-22T10:21:40;45.80;15.40
23395;DHT22;11870;53.084;18.206;2023-06-22T10:24:06;45.30;15.10
23395;DHT22;11870;53.084;18.206;2023-06-22T10:26:32;45.20;15.40
23395;DHT22;11870;53.084;18.206;2023-06-22T10:28:59;43.00;15.80
23395;DHT22;11870;53.084;18.206;2023-06-22T10:31:26;42.80;16.50
23395;DHT22;11870;53.084;18.206;2023-06-22T10:33:53;39.90;18.10
23395;DHT22;11870;53.084;18.206;2023-06-22T11:05:40;33.90;25.60
23395;DHT22;11870;53.084;18.206;2023-06-22T11:08:07;33.90;26.30
23395;DHT22;11870;53.084;18.206;2023-06-22T11:15:31;33.50;24.90
23395;DHT22;11870;53.084;18.206;2023-06-22T11:17:57;33.50;25.30
23395;DHT22;11870;53.084;18.206;2023-06-22T11:20:23;33.50;25.30
23395;DHT22;11870;53.084;18.206;2023-06-22T11:22:49;33.40;25.00
23395;DHT22;11870;53.084;18.206;2023-06-22T11:25:15;33.40;25.70
23395;DHT22;11870;53.084;18.206;2023-06-22T11:27:41;33.40;26.40
23395;DHT22;11870;53.084;18.206;2023-06-22T11:30:07;33.50;26.30
23395;DHT22;11870;53.084;18.206;2023-06-22T11:32:34;33.60;26.50
23395;DHT22;11870;53.084;18.206;2023-06-22T11:35:05;33.60;26.90
23395;DHT22;11870;53.084;18.206;2023-06-22T11:37:31;33.40;26.60
23395;DHT22;11870;53.084;18.206;2023-06-22T11:39:57;33.00;28.00
23395;DHT22;11870;53.084;18.206;2023-06-22T11:49:46;32.90;26.90
23395;DHT22;11870;53.084;18.206;2023-06-22T11:52:12;32.80;27.30
23395;DHT22;11870;53.084;18.206;2023-06-22T11:54:38;32.80;26.70
23395;DHT22;11870;53.084;18.206;2023-06-22T11:57:04;32.80;26.40
23395;DHT22;11870;53.084;18.206;2023-06-22T11:59:30;32.60;26.50
23395;DHT22;11870;53.084;18.206;2023-06-22T12:01:57;32.60;26.90
23395;DHT22;11870;53.084;18.206;2023-06-22T12:04:24;32.40;27.30
23395;DHT22;11870;53.084;18.206;2023-06-22T12:09:16;32.20;27.20
23395;DHT22;11870;53.084;18.206;2023-06-22T12:11:42;32.10;27.40
23395;DHT22;11870;53.084;18.206;2023-06-22T12:14:08;32.00;27.70
23395;DHT22;11870;53.084;18.206;2023-06-22T12:19:04;32.10;26.00
23395;DHT22;11870;53.084;18.206;2023-06-22T12:21:30;31.90;26.70
23395;DHT22;11870;53.084;18.206;2023-06-22T12:23:56;31.90;26.20
23395;DHT22;11870;53.084;18.206;2023-06-22T12:26:22;31.90;26.70
23395;DHT22;11870;53.084;18.206;2023-06-22T12:28:48;31.90;27.00
23395;DHT22;11870;53.084;18.206;2023-06-22T12:31:15;32.00;27.10
23395;DHT22;11870;53.084;18.206;2023-06-22T12:33:46;31.50;26.40
23395;DHT22;11870;53.084;18.206;2023-06-22T12:36:12;31.50;26.90
23395;DHT22;11870;53.084;18.206;2023-06-22T12:41:04;31.30;27.80
23395;DHT22;11870;53.084;18.206;2023-06-22T12:43:30;31.50;27.40
23395;DHT22;11870;53.084;18.206;2023-06-22T12:45:56;31.50;27.30
23395;DHT22;11870;53.084;18.206;2023-06-22T12:48:23;31.40;27.30
23395;DHT22;11870;53.084;18.206;2023-06-22T12:50:49;31.40;27.60
23395;DHT22;11870;53.084;18.206;2023-06-22T12:55:41;31.10;28.80
23395;DHT22;11870;53.084;18.206;2023-06-22T12:58:07;31.00;28.40
23395;DHT22;11870;53.084;18.206;2023-06-22T13:00:33;31.00;28.10
23395;DHT22;11870;53.084;18.206;2023-06-22T13:02:59;30.80;28.60
23395;DHT22;11870;53.084;18.206;2023-06-22T13:05:25;30.80;28.50
23395;DHT22;11870;53.084;18.206;2023-06-22T13:07:51;30.60;28.80
23395;DHT22;11870;53.084;18.206;2023-06-22T13:10:17;30.60;28.00
23395;DHT22;11870;53.084;18.206;2023-06-22T13:12:43;30.60;28.20
23395;DHT22;11870;53.084;18.206;2023-06-22T13:15:09;30.60;28.60
23395;DHT22;11870;53.084;18.206;2023-06-22T13:17:35;30.60;28.40
23395;DHT22;11870;53.084;18.206;2023-06-22T13:20:01;30.60;28.90
23395;DHT22;11870;53.084;18.206;2023-06-22T13:22:31;30.50;29.10
23395;DHT22;11870;53.084;18.206;2023-06-22T13:24:59;30.30;29.30
23395;DHT22;11870;53.084;18.206;2023-06-22T13:27:25;29.90;29.40
23395;DHT22;11870;53.084;18.206;2023-06-22T13:29:52;29.90;30.30
23395;DHT22;11870;53.084;18.206;2023-06-22T13:32:18;30.10;29.80
23395;DHT22;11870;53.084;18.206;2023-06-22T13:34:44;30.10;30.30
23395;DHT22;11870;53.084;18.206;2023-06-22T13:37:10;30.10;29.10
23395;DHT22;11870;53.084;18.206;2023-06-22T13:44:00;30.10;28.80
23395;DHT22;11870;53.084;18.206;2023-06-22T13:50:07;30.20;28.80
23395;DHT22;11870;53.084;18.206;2023-06-22T13:54:59;30.20;29.30
23395;DHT22;11870;53.084;18.206;2023-06-22T13:57:26;30.20;29.30
23395;DHT22;11870;53.084;18.206;2023-06-22T13:59:52;30.20;28.80
23395;DHT22;11870;53.084;18.206;2023-06-22T14:02:18;30.10;28.80
23395;DHT22;11870;53.084;18.206;2023-06-22T14:04:44;30.10;29.80
23395;DHT22;11870;53.084;18.206;2023-06-22T14:07:10;30.20;29.40
23395;DHT22;11870;53.084;18.206;2023-06-22T14:09:36;30.10;28.90
23395;DHT22;11870;53.084;18.206;2023-06-22T14:12:06;29.90;32.40
23395;DHT22;11870;53.084;18.206;2023-06-22T14:14:33;29.90;30.90
23395;DHT22;11870;53.084;18.206;2023-06-22T14:17:00;29.80;29.50
23395;DHT22;11870;53.084;18.206;2023-06-22T14:19:26;29.70;30.10
23395;DHT22;11870;53.084;18.206;2023-06-22T14:21:52;29.70;29.80
23395;DHT22;11870;53.084;18.206;2023-06-22T14:24:18;29.80;30.40
23395;DHT22;11870;53.084;18.206;2023-06-22T14:26:44;29.80;31.20
23395;DHT22;11870;53.084;18.206;2023-06-22T14:29:10;29.70;30.40
23395;DHT22;11870;53.084;18.206;2023-06-22T14:31:36;29.60;30.00
23395;DHT22;11870;53.084;18.206;2023-06-22T14:34:01;29.30;29.90
23395;DHT22;11870;53.084;18.206;2023-06-22T14:36:29;29.20;30.40
23395;DHT22;11870;53.084;18.206;2023-06-22T14:38:55;29.20;30.80
23395;DHT22;11870;53.084;18.206;2023-06-22T14:41:21;29.10;34.00
23395;DHT22;11870;53.084;18.206;2023-06-22T14:43:48;29.00;32.50
23395;DHT22;11870;53.084;18.206;2023-06-22T14:46:15;29.00;31.70
23395;DHT22;11870;53.084;18.206;2023-06-22T14:48:41;28.90;32.20
23395;DHT22;11870;53.084;18.206;2023-06-22T14:51:08;28.80;32.80
23395;DHT22;11870;53.084;18.206;2023-06-22T14:53:35;28.80;33.40
23395;DHT22;11870;53.084;18.206;2023-06-22T14:56:02;28.80;33.50
23395;DHT22;11870;53.084;18.206;2023-06-22T14:58:32;28.80;33.50
23395;DHT22;11870;53.084;18.206;2023-06-22T15:01:07;28.80;33.20
23395;DHT22;11870;53.084;18.206;2023-06-22T15:03:39;28.70;34.50
23395;DHT22;11870;53.084;18.206;2023-06-22T15:06:06;28.70;33.50
23395;DHT22;11870;53.084;18.206;2023-06-22T15:08:32;28.70;34.30
23395;DHT22;11870;53.084;18.206;2023-06-22T15:10:59;28.70;33.50
23395;DHT22;11870;53.084;18.206;2023-06-22T15:13:27;28.60;32.90
23395;DHT22;11870;53.084;18.206;2023-06-22T15:15:53;28.50;32.40
23395;DHT22;11870;53.084;18.206;2023-06-22T15:18:36;28.50;33.60
23395;DHT22;11870;53.084;18.206;2023-06-22T15:21:06;28.40;32.40
23395;DHT22;11870;53.084;18.206;2023-06-22T15:23:33;28.30;31.90
23395;DHT22;11870;53.084;18.206;2023-06-22T15:26:02;28.20;32.80
23395;DHT22;11870;53.084;18.206;2023-06-22T15:28:41;28.20;33.00
23395;DHT22;11870;53.084;18.206;2023-06-22T15:34:48;28.00;33.00
23395;DHT22;11870;53.084;18.206;2023-06-22T15:41:07;27.90;34.10
23395;DHT22;11870;53.084;18.206;2023-06-22T15:43:55;27.90;33.40
23395;DHT22;11870;53.084;18.206;2023-06-22T15:46:24;27.90;34.30
23395;DHT22;11870;53.084;18.206;2023-06-22T15:48:50;27.90;32.90
23395;DHT22;11870;53.084;18.206;2023-06-22T15:51:16;27.90;33.50
23395;DHT22;11870;53.084;18.206;2023-06-22T15:53:42;27.90;33.40
23395;DHT22;11870;53.084;18.206;2023-06-22T15:56:08;27.90;33.70
23395;DHT22;11870;53.084;18.206;2023-06-22T15:58:37;27.90;34.30
23395;DHT22;11870;53.084;18.206;2023-06-22T16:01:04;27.90;34.50
23395;DHT22;11870;53.084;18.206;2023-06-22T16:03:31;27.90;32.40
23395;DHT22;11870;53.084;18.206;2023-06-22T16:05:58;27.80;31.90
23395;DHT22;11870;53.084;18.206;2023-06-22T16:08:24;27.80;31.10
23395;DHT22;11870;53.084;18.206;2023-06-22T16:10:51;27.80;33.00
23395;DHT22;11870;53.084;18.206;2023-06-22T16:15:44;27.80;34.20
23395;DHT22;11870;53.084;18.206;2023-06-22T16:18:14;27.80;34.10
23395;DHT22;11870;53.084;18.206;2023-06-22T16:24:26;27.70;33.70
23395;DHT22;11870;53.084;18.206;2023-06-22T16:30:44;27.50;34.80
23395;DHT22;11870;53.084;18.206;2023-06-22T16:33:10;27.60;35.70
23395;DHT22;11870;53.084;18.206;2023-06-22T16:35:36;27.60;35.00
23395;DHT22;11870;53.084;18.206;2023-06-22T16:38:02;27.50;35.10
23395;DHT22;11870;53.084;18.206;2023-06-22T16:40:28;27.50;33.90
23395;DHT22;11870;53.084;18.206;2023-06-22T16:46:35;27.50;34.60
23395;DHT22;11870;53.084;18.206;2023-06-22T16:49:02;27.50;35.70
23395;DHT22;11870;53.084;18.206;2023-06-22T16:51:28;27.40;36.90
23395;DHT22;11870;53.084;18.206;2023-06-22T16:53:54;27.20;35.80
23395;DHT22;11870;53.084;18.206;2023-06-22T16:56:25;27.20;36.30
23395;DHT22;11870;53.084;18.206;2023-06-22T16:58:56;27.00;35.30
23395;DHT22;11870;53.084;18.206;2023-06-22T17:05:10;26.90;34.80
23395;DHT22;11870;53.084;18.206;2023-06-22T17:07:39;26.80;34.60
23395;DHT22;11870;53.084;18.206;2023-06-22T17:10:46;26.70;35.70
23395;DHT22;11870;53.084;18.206;2023-06-22T17:13:13;26.80;36.50
23395;DHT22;11870;53.084;18.206;2023-06-22T17:15:40;26.90;37.30
23395;DHT22;11870;53.084;18.206;2023-06-22T17:18:09;26.80;37.50
23395;DHT22;11870;53.084;18.206;2023-06-22T17:20:35;26.80;37.80
23395;DHT22;11870;53.084;18.206;2023-06-22T17:23:01;26.70;38.20
23395;DHT22;11870;53.084;18.206;2023-06-22T17:25:28;26.70;37.00
23395;DHT22;11870;53.084;18.206;2023-06-22T17:28:00;26.70;37.40
23395;DHT22;11870;53.084;18.206;2023-06-22T17:30:29;26.60;36.70
23395;DHT22;11870;53.084;18.206;2023-06-22T17:32:57;26.50;37.60
23395;DHT22;11870;53.084;18.206;2023-06-22T17:35:23;26.50;39.10
23395;DHT22;11870;53.084;18.206;2023-06-22T17:37:54;26.50;40.00
23395;DHT22;11870;53.084;18.206;2023-06-22T17:40:22;26.40;40.60
23395;DHT22;11870;53.084;18.206;2023-06-22T17:43:04;26.20;41.40
23395;DHT22;11870;53.084;18.206;2023-06-22T17:45:40;26.30;42.90
23395;DHT22;11870;53.084;18.206;2023-06-22T17:48:10;26.20;43.40
23395;DHT22;11870;53.084;18.206;2023-06-22T17:50:41;26.00;42.50
23395;DHT22;11870;53.084;18.206;2023-06-22T17:53:12;25.90;42.70
23395;DHT22;11870;53.084;18.206;2023-06-22T17:55:38;25.80;43.20
23395;DHT22;11870;53.084;18.206;2023-06-22T18:00:31;25.60;44.20
23395;DHT22;11870;53.084;18.206;2023-06-22T18:02:58;25.50;45.10
23395;DHT22;11870;53.084;18.206;2023-06-22T18:05:47;25.40;46.50
23395;DHT22;11870;53.084;18.206;2023-06-22T18:08:14;25.40;46.90